Time;durP1;ratioP1;P1;durP2;ratioP2;P2;SDS_P1;SDS_P2;PMS_P1;PMS_P2;Temp;Humidity;BMP_temperature;BMP_pressure;BME280_temperature;BME280_humidity;BME280_pressure;Samples;Min_cycle;Max_cycle;Signal;HPM_P1;HPM_P2
2023/06/15 11:01:09;;;;;;;;;;;23.10;50.20;;;;;;6065293;23;19943;-93
2023/06/15 11:08:37;;;;;;;;;;;23.20;49.30;;;;;;5955926;23;20012;-92
2023/06/15 11:17:52;;;;;;;;;;;23.30;49.40;;;;;;5938632;24;19918;-93
2023/06/15 11:41:53;;;;;;;;;;;23.60;48.70;;;;;;6191121;23;19951;-91
2023/06/15 11:44:41;;;;;;;;;;;23.80;49.90;;;;;;6137412;23;19987;-91
2023/06/15 11:47:17;;;;;;;;;;;23.90;51.10;;;;;;6026759;23;19976;-92
2023/06/15 11:53:43;;;;;;;;;;;23.90;49.00;;;;;;6080232;23;19921;-90
2023/06/15 12:34:25;;;;;;;;;;;;;;;;;;;;;
2023/06/15 12:37:52;;;;;;;;;;;24.00;51.00;;;;;;5886920;24;19949;-92
2023/06/15 12:55:28;;;;;;;;;;;24.10;50.80;;;;;;5900684;24;19971;-93
2023/06/15 13:04:04;;;;;;;;;;;24.00;51.80;;;;;;5949478;24;19927;-91
2023/06/15 13:23:54;;;;;;;;;;;24.00;52.00;;;;;;5554935;22;15983970;-91
2023/06/15 13:26:53;;;;;;;;;;;23.90;51.40;;;;;;6239672;23;19926;-96
2023/06/15 13:32:42;;;;;;;;;;;23.70;51.50;;;;;;6215129;22;20001;-92
2023/06/15 13:35:17;;;;;;;;;;;23.60;51.50;;;;;;6203422;23;19995;-90
2023/06/15 13:38:32;;;;;;;;;;;23.60;51.60;;;;;;6218858;23;19919;-93
2023/06/15 13:41:03;;;;;;;;;;;23.70;51.10;;;;;;6169735;23;19920;-93
2023/06/15 13:43:37;;;;;;;;;;;23.70;51.30;;;;;;6190947;23;19955;-94
2023/06/15 13:46:32;;;;;;;;;;;23.60;50.50;;;;;;6194675;23;19927;-91
2023/06/15 13:49:44;;;;;;;;;;;23.60;50.90;;;;;;6175928;23;19946;-93
2023/06/15 13:53:03;;;;;;;;;;;;;;;;;;;;;
2023/06/15 13:55:38;;;;;;;;;;;23.70;51.20;;;;;;6251806;23;19926;-91
2023/06/15 13:58:31;;;;;;;;;;;23.90;50.70;;;;;;6217495;22;20327;-91
2023/06/15 14:01:19;;;;;;;;;;;24.00;50.20;;;;;;6226157;23;19923;-92
2023/06/15 14:04:33;;;;;;;;;;;24.00;50.30;;;;;;6217367;22;19926;-93
2023/06/15 14:07:20;;;;;;;;;;;24.00;50.70;;;;;;6214770;23;19977;-91
2023/06/15 14:13:18;;;;;;;;;;;24.00;50.30;;;;;;6249926;22;19926;-92
2023/06/15 14:16:35;;;;;;;;;;;;;;;;;;;;;
2023/06/15 14:19:18;;;;;;;;;;;;;;;;;;;;;
2023/06/15 14:22:13;;;;;;;;;;;23.90;50.60;;;;;;6187197;23;19998;-92
2023/06/15 14:28:44;;;;;;;;;;;23.90;50.60;;;;;;6069625;23;19921;-91
2023/06/15 14:31:19;;;;;;;;;;;24.00;50.50;;;;;;6146469;23;19927;-91
2023/06/15 14:34:18;;;;;;;;;;;;;;;;;;;;;
2023/06/15 14:37:36;;;;;;;;;;;24.00;50.00;;;;;;6116736;23;19999;-93
2023/06/15 14:40:36;;;;;;;;;;;24.00;50.00;;;;;;6037042;23;20346;-93
2023/06/15 14:43:17;;;;;;;;;;;23.90;50.00;;;;;;5990804;23;20393;-93
2023/06/15 14:45:58;;;;;;;;;;;;;;;;;;;;;
2023/06/15 14:48:44;;;;;;;;;;;24.10;51.70;;;;;;6300364;22;19925;-87
2023/06/15 14:51:25;;;;;;;;;;;24.20;50.50;;;;;;6188062;22;19918;-89
2023/06/15 15:03:15;;;;;;;;;;;24.10;50.40;;;;;;6255912;23;19938;-92
2023/06/15 15:05:42;;;;;;;;;;;24.20;49.70;;;;;;6057303;23;19928;-90
2023/06/15 15:08:33;;;;;;;;;;;;;;;;;;;;;
2023/06/15 15:12:11;;;;;;;;;;;;;;;;;;;;;
2023/06/15 15:14:38;;;;;;;;;;;24.20;50.30;;;;;;6212810;23;20340;-93
2023/06/15 15:17:26;;;;;;;;;;;24.30;49.80;;;;;;6175783;23;19916;-92
2023/06/15 15:20:20;;;;;;;;;;;24.30;49.80;;;;;;6119554;23;19942;-91
2023/06/15 15:26:33;;;;;;;;;;;24.20;50.50;;;;;;6201572;23;20554;-90
2023/06/15 15:29:33;;;;;;;;;;;24.20;49.90;;;;;;6118920;23;20011;-91
2023/06/15 15:32:35;;;;;;;;;;;;;;;;;;;;;
2023/06/15 15:35:13;;;;;;;;;;;24.20;50.60;;;;;;6254460;22;20327;-92
2023/06/15 15:37:51;;;;;;;;;;;24.20;50.70;;;;;;6241015;22;19953;-92
2023/06/15 15:40:29;;;;;;;;;;;24.20;51.30;;;;;;6216631;23;20012;-92
2023/06/15 15:43:43;;;;;;;;;;;24.20;51.40;;;;;;6164108;23;20323;-92
2023/06/15 15:46:12;;;;;;;;;;;24.20;51.70;;;;;;6146154;23;19920;-91
2023/06/15 15:49:14;;;;;;;;;;;24.00;51.00;;;;;;6182112;22;19926;-93
2023/06/15 15:55:35;;;;;;;;;;;24.00;51.20;;;;;;6147465;23;19999;-92
2023/06/15 15:58:07;;;;;;;;;;;24.00;50.30;;;;;;6103992;23;19927;-92
2023/06/15 16:00:33;;;;;;;;;;;24.00;50.40;;;;;;6149579;23;20641;-92
2023/06/15 16:06:17;;;;;;;;;;;24.00;50.00;;;;;;6151340;23;19925;-93
2023/06/15 16:09:20;;;;;;;;;;;24.00;50.60;;;;;;6061359;23;19921;-92
2023/06/15 16:11:54;;;;;;;;;;;24.00;51.20;;;;;;6088248;23;20438;-92
2023/06/15 16:14:23;;;;;;;;;;;24.00;50.50;;;;;;6073782;23;19924;-91
2023/06/15 16:17:05;;;;;;;;;;;24.00;49.70;;;;;;6110020;23;19999;-92
2023/06/15 16:19:44;;;;;;;;;;;23.80;49.60;;;;;;6079756;23;19921;-91
2023/06/15 16:22:28;;;;;;;;;;;23.80;50.10;;;;;;6123819;23;19924;-91
2023/06/15 16:28:17;;;;;;;;;;;23.60;51.20;;;;;;6029483;23;19925;-91
2023/06/15 16:31:07;;;;;;;;;;;23.60;50.90;;;;;;6045796;23;19925;-92
2023/06/15 16:33:50;;;;;;;;;;;23.60;50.70;;;;;;6010470;23;19922;-92
2023/06/15 16:40:19;;;;;;;;;;;23.50;50.10;;;;;;6043582;23;20332;-94
2023/06/15 16:46:34;;;;;;;;;;;23.50;49.80;;;;;;6085004;23;19917;-92
2023/06/15 16:49:12;;;;;;;;;;;23.50;49.10;;;;;;6057961;23;19976;-92
2023/06/15 16:51:53;;;;;;;;;;;23.50;49.30;;;;;;6163280;23;19919;-92
2023/06/15 16:54:47;;;;;;;;;;;23.40;50.10;;;;;;6142805;23;19924;-91
2023/06/15 16:57:25;;;;;;;;;;;23.40;49.10;;;;;;6136950;23;19971;-92
2023/06/15 17:00:28;;;;;;;;;;;23.40;48.40;;;;;;6085961;23;19991;-91
2023/06/15 17:02:57;;;;;;;;;;;23.30;47.40;;;;;;6081359;23;20341;-92
2023/06/15 17:08:35;;;;;;;;;;;;;;;;;;;;;
2023/06/15 17:14:37;;;;;;;;;;;23.20;48.50;;;;;;6160136;23;19970;-93
2023/06/15 17:17:20;;;;;;;;;;;23.20;48.70;;;;;;6142859;23;20257;-92
2023/06/15 17:19:57;;;;;;;;;;;23.20;49.60;;;;;;6169102;23;19958;-92
2023/06/15 17:26:24;;;;;;;;;;;;;;;;;;;;;
2023/06/15 17:29:49;;;;;;;;;;;23.00;49.00;;;;;;6232055;22;19919;-89
2023/06/15 17:32:57;;;;;;;;;;;;;;;;;;;;;
2023/06/15 17:42:45;;;;;;;;;;;22.70;49.40;;;;;;6136488;23;20378;-89
2023/06/15 17:45:19;;;;;;;;;;;22.50;50.60;;;;;;6169204;22;19926;-89
2023/06/15 17:47:57;;;;;;;;;;;22.50;50.80;;;;;;6235068;22;19923;-89
2023/06/15 17:53:42;;;;;;;;;;;22.20;51.80;;;;;;6206344;22;20389;-89
2023/06/15 17:56:26;;;;;;;;;;;22.20;52.20;;;;;;6252924;22;19919;-92
2023/06/15 17:59:24;;;;;;;;;;;22.10;52.20;;;;;;6174319;22;19942;-89
2023/06/15 18:02:14;;;;;;;;;;;22.00;52.60;;;;;;6199458;22;19926;-89
2023/06/15 18:04:40;;;;;;;;;;;22.00;53.00;;;;;;6239325;22;19926;-89
2023/06/15 18:07:50;;;;;;;;;;;21.90;53.40;;;;;;6301702;22;19995;-90
2023/06/15 18:14:13;;;;;;;;;;;21.70;54.10;;;;;;6175203;23;19924;-90
2023/06/15 18:16:48;;;;;;;;;;;21.70;54.70;;;;;;6127734;23;19920;-90
2023/06/15 18:19:44;;;;;;;;;;;21.60;54.80;;;;;;6066773;23;20383;-90
2023/06/15 18:22:13;;;;;;;;;;;21.50;55.00;;;;;;6271570;22;19958;-91
2023/06/15 18:24:40;;;;;;;;;;;21.40;54.70;;;;;;6259986;22;19922;-90
2023/06/15 18:31:08;;;;;;;;;;;21.10;54.40;;;;;;6266357;22;19971;-90
2023/06/15 18:41:13;;;;;;;;;;;20.70;54.80;;;;;;6195337;23;19919;-90
2023/06/15 18:44:07;;;;;;;;;;;20.50;55.40;;;;;;6120074;23;19924;-91
2023/06/15 18:46:54;;;;;;;;;;;20.30;55.70;;;;;;6186523;23;19999;-91
2023/06/15 18:49:41;;;;;;;;;;;20.20;55.80;;;;;;6176391;22;19924;-89
2023/06/15 18:52:14;;;;;;;;;;;20.10;55.80;;;;;;6272136;22;19922;-89
2023/06/15 18:55:09;;;;;;;;;;;20.00;55.70;;;;;;6283604;22;19919;-89
2023/06/15 18:58:03;;;;;;;;;;;;;;;;;;;;;
2023/06/15 19:00:43;;;;;;;;;;;19.70;55.90;;;;;;6304657;22;20333;-90
2023/06/15 19:03:20;;;;;;;;;;;19.50;56.00;;;;;;6262353;22;19948;-90
2023/06/15 19:05:46;;;;;;;;;;;19.40;56.30;;;;;;6279822;22;20318;-89
2023/06/15 19:08:21;;;;;;;;;;;;;;;;;;;;;
2023/06/15 19:11:03;;;;;;;;;;;19.20;56.80;;;;;;6282249;22;20278;-90
2023/06/15 19:13:52;;;;;;;;;;;19.10;56.90;;;;;;6232767;22;19954;-89
2023/06/15 19:16:21;;;;;;;;;;;19.00;57.00;;;;;;6254943;22;19930;-89
2023/06/15 19:18:53;;;;;;;;;;;18.90;57.20;;;;;;6206303;22;20249;-90
2023/06/15 19:21:38;;;;;;;;;;;18.90;57.60;;;;;;6262233;22;20360;-88
2023/06/15 19:24:56;;;;;;;;;;;;;;;;;;;;;
2023/06/15 19:28:13;;;;;;;;;;;18.70;58.00;;;;;;6158461;23;19978;-89
2023/06/15 19:37:48;;;;;;;;;;;;;;;;;;;;;
2023/06/15 19:44:33;;;;;;;;;;;18.30;59.40;;;;;;6117741;23;20379;-89
2023/06/15 19:47:28;;;;;;;;;;;18.30;59.20;;;;;;6112534;23;19988;-89
2023/06/15 19:50:19;;;;;;;;;;;18.20;59.60;;;;;;6065075;23;19967;-90
2023/06/15 19:53:04;;;;;;;;;;;;;;;;;;;;;
2023/06/15 19:56:17;;;;;;;;;;;18.10;60.00;;;;;;6180331;23;19951;-89
2023/06/15 19:58:52;;;;;;;;;;;18.00;60.00;;;;;;6059709;23;19979;-89
2023/06/15 20:01:37;;;;;;;;;;;18.00;60.20;;;;;;6125912;23;20442;-89
2023/06/15 20:04:21;;;;;;;;;;;17.90;60.30;;;;;;6138570;23;20382;-89
2023/06/15 20:07:20;;;;;;;;;;;;;;;;;;;;;
2023/06/15 20:09:59;;;;;;;;;;;17.80;60.40;;;;;;6213414;22;19934;-90
2023/06/15 20:12:34;;;;;;;;;;;17.70;60.90;;;;;;6187963;22;19923;-89
2023/06/15 20:18:28;;;;;;;;;;;17.60;61.00;;;;;;6078537;23;20352;-90
2023/06/15 20:21:51;;;;;;;;;;;;;;;;;;;;;
2023/06/15 20:24:36;;;;;;;;;;;;;;;;;;;;;
2023/06/15 20:35:04;;;;;;;;;;;;;;;;;;;;;
2023/06/15 20:38:02;;;;;;;;;;;17.30;61.60;;;;;;6080870;23;19925;-89
2023/06/15 20:41:17;;;;;;;;;;;17.30;61.70;;;;;;6150954;23;19920;-89
2023/06/15 20:47:55;;;;;;;;;;;17.20;61.60;;;;;;6111725;23;19925;-90
2023/06/15 20:54:34;;;;;;;;;;;17.00;62.00;;;;;;5994894;23;19926;-90
2023/06/15 21:01:01;;;;;;;;;;;;;;;;;;;;;
2023/06/15 21:08:11;;;;;;;;;;;;;;;;;;;;;
2023/06/15 21:17:52;;;;;;;;;;;;;;;;;;;;;
2023/06/15 21:20:46;;;;;;;;;;;16.70;63.60;;;;;;6039249;23;19941;-90
2023/06/15 21:27:12;;;;;;;;;;;16.60;63.50;;;;;;6086744;23;19977;-89
2023/06/15 21:30:12;;;;;;;;;;;16.50;63.70;;;;;;6016251;23;19948;-89
2023/06/15 22:31:44;;;;;;;;;;;;;;;;;;;;;
2023/06/15 23:24:07;;;;;;;;;;;;;;;;;;;;;
